Sao Paulo, Brazil
Current Conditions -  °F | °C
As of 6:00 AM on Wednesday 26 Nov 2014 (Local Time) from SBMT Reporting Station
Light Rain Light Rain  
Wind Chill: 70°   Ceiling: 10000
Heat Index: 70°   Visibility: 6mi
Dew Point: 64°   Wind: 5mph
Humidity: 83%   Direction: 80°E
Pressure: 29.8"   Gusts: NA
Location:  23.53°S, 46.63°W
Report Text: SBMT 260800Z 08004KT 9999 -RA FEW010 BKN100 21/18 Q1009
Loading
Personal Weather Stations






























Interactive Weather Map New forecast layout! Learn more

10-Day Weather Forecast

Advertisements
Track Severe Weather on mobile